sensor_id;sensor_type;location;lat;lon;timestamp;temperature;humidity
67890;DHT22;54685;52.082;5.426;2022-09-13T00:00:57;18.60;99.90
67890;DHT22;54685;52.082;5.426;2022-09-13T00:03:25;18.60;99.90
67890;DHT22;54685;52.082;5.426;2022-09-13T00:05:52;18.60;99.90
67890;DHT22;54685;52.082;5.426;2022-09-13T00:08:19;18.60;99.90
67890;DHT22;54685;52.082;5.426;2022-09-13T00:10:47;18.50;99.90
67890;DHT22;54685;52.082;5.426;2022-09-13T00:13:14;18.50;99.90
67890;DHT22;54685;52.082;5.426;2022-09-13T00:15:46;18.50;99.90
67890;DHT22;54685;52.082;5.426;2022-09-13T00:18:14;18.50;99.90
67890;DHT22;54685;52.082;5.426;2022-09-13T00:20:41;18.50;99.90
67890;DHT22;54685;52.082;5.426;2022-09-13T00:23:08;18.50;99.90
67890;DHT22;54685;52.082;5.426;2022-09-13T00:25:34;18.50;99.90
67890;DHT22;54685;52.082;5.426;2022-09-13T00:28:02;18.50;99.90
67890;DHT22;54685;52.082;5.426;2022-09-13T00:30:29;18.50;99.90
67890;DHT22;54685;52.082;5.426;2022-09-13T00:32:56;18.50;99.90
67890;DHT22;54685;52.082;5.426;2022-09-13T00:35:23;18.50;99.90
67890;DHT22;54685;52.082;5.426;2022-09-13T00:37:49;18.50;99.90
67890;DHT22;54685;52.082;5.426;2022-09-13T00:40:16;18.60;99.90
67890;DHT22;54685;52.082;5.426;2022-09-13T00:42:43;18.60;99.90
67890;DHT22;54685;52.082;5.426;2022-09-13T00:47:43;18.50;99.90
67890;DHT22;54685;52.082;5.426;2022-09-13T00:50:28;18.50;99.90
67890;DHT22;54685;52.082;5.426;2022-09-13T00:53:13;18.50;99.90
67890;DHT22;54685;52.082;5.426;2022-09-13T00:58:10;18.40;99.90
67890;DHT22;54685;52.082;5.426;2022-09-13T01:00:39;18.40;99.90
67890;DHT22;54685;52.082;5.426;2022-09-13T01:03:09;18.40;99.90
67890;DHT22;54685;52.082;5.426;2022-09-13T01:05:44;18.40;99.90
67890;DHT22;54685;52.082;5.426;2022-09-13T01:08:12;18.50;99.90
67890;DHT22;54685;52.082;5.426;2022-09-13T01:10:45;18.40;99.90
67890;DHT22;54685;52.082;5.426;2022-09-13T01:13:17;18.40;99.90
67890;DHT22;54685;52.082;5.426;2022-09-13T01:15:44;18.40;99.90
67890;DHT22;54685;52.082;5.426;2022-09-13T01:18:12;18.40;99.90
67890;DHT22;54685;52.082;5.426;2022-09-13T01:26:56;18.30;99.90
67890;DHT22;54685;52.082;5.426;2022-09-13T01:40:46;18.40;99.90
67890;DHT22;54685;52.082;5.426;2022-09-13T01:49:02;18.40;99.90
67890;DHT22;54685;52.082;5.426;2022-09-13T01:51:37;18.40;99.90
67890;DHT22;54685;52.082;5.426;2022-09-13T01:54:23;18.50;99.90
67890;DHT22;54685;52.082;5.426;2022-09-13T02:00:06;18.40;99.90
67890;DHT22;54685;52.082;5.426;2022-09-13T02:02:55;18.40;99.90
67890;DHT22;54685;52.082;5.426;2022-09-13T02:05:49;18.40;99.90
67890;DHT22;54685;52.082;5.426;2022-09-13T02:08:23;18.30;99.90
67890;DHT22;54685;52.082;5.426;2022-09-13T02:11:15;18.30;99.90
67890;DHT22;54685;52.082;5.426;2022-09-13T02:14:03;18.30;99.90
67890;DHT22;54685;52.082;5.426;2022-09-13T02:16:37;18.30;99.90
67890;DHT22;54685;52.082;5.426;2022-09-13T02:19:13;18.30;99.90
67890;DHT22;54685;52.082;5.426;2022-09-13T02:21:42;18.30;99.90
67890;DHT22;54685;52.082;5.426;2022-09-13T02:24:14;18.20;99.90
67890;DHT22;54685;52.082;5.426;2022-09-13T02:26:42;18.20;99.90
67890;DHT22;54685;52.082;5.426;2022-09-13T02:29:18;18.20;99.90
67890;DHT22;54685;52.082;5.426;2022-09-13T02:31:54;18.20;99.90
67890;DHT22;54685;52.082;5.426;2022-09-13T02:34:23;18.20;99.90
67890;DHT22;54685;52.082;5.426;2022-09-13T02:36:54;18.20;99.90
67890;DHT22;54685;52.082;5.426;2022-09-13T02:39:24;18.10;99.90
67890;DHT22;54685;52.082;5.426;2022-09-13T02:44:33;18.20;99.90
67890;DHT22;54685;52.082;5.426;2022-09-13T03:01:29;18.20;99.90
67890;DHT22;54685;52.082;5.426;2022-09-13T03:03:55;18.10;99.90
67890;DHT22;54685;52.082;5.426;2022-09-13T03:06:24;18.10;99.90
67890;DHT22;54685;52.082;5.426;2022-09-13T03:08:52;18.10;99.90
67890;DHT22;54685;52.082;5.426;2022-09-13T03:15:07;18.10;99.90
67890;DHT22;54685;52.082;5.426;2022-09-13T03:17:45;18.00;99.90
67890;DHT22;54685;52.082;5.426;2022-09-13T03:20:23;18.00;99.90
67890;DHT22;54685;52.082;5.426;2022-09-13T03:23:20;18.00;99.90
67890;DHT22;54685;52.082;5.426;2022-09-13T03:31:40;18.00;99.90
67890;DHT22;54685;52.082;5.426;2022-09-13T03:34:33;17.90;99.90
67890;DHT22;54685;52.082;5.426;2022-09-13T03:37:13;17.90;99.90
67890;DHT22;54685;52.082;5.426;2022-09-13T03:39:49;17.90;99.90
67890;DHT22;54685;52.082;5.426;2022-09-13T03:42:30;18.00;99.90
67890;DHT22;54685;52.082;5.426;2022-09-13T03:45:00;18.00;99.90
67890;DHT22;54685;52.082;5.426;2022-09-13T03:47:31;18.00;99.90
67890;DHT22;54685;52.082;5.426;2022-09-13T03:49:59;18.10;99.90
67890;DHT22;54685;52.082;5.426;2022-09-13T03:52:27;18.10;99.90
67890;DHT22;54685;52.082;5.426;2022-09-13T03:54:53;18.20;99.90
67890;DHT22;54685;52.082;5.426;2022-09-13T03:57:21;18.20;99.90
67890;DHT22;54685;52.082;5.426;2022-09-13T03:59:52;18.20;99.90
67890;DHT22;54685;52.082;5.426;2022-09-13T04:02:21;18.20;99.90
67890;DHT22;54685;52.082;5.426;2022-09-13T04:04:49;18.20;99.90
67890;DHT22;54685;52.082;5.426;2022-09-13T04:07:19;18.20;99.90
67890;DHT22;54685;52.082;5.426;2022-09-13T04:09:46;18.20;99.90
67890;DHT22;54685;52.082;5.426;2022-09-13T04:12:16;18.30;99.90
67890;DHT22;54685;52.082;5.426;2022-09-13T04:14:43;18.30;99.90
67890;DHT22;54685;52.082;5.426;2022-09-13T04:17:11;18.20;99.90
67890;DHT22;54685;52.082;5.426;2022-09-13T04:19:38;18.10;99.90
67890;DHT22;54685;52.082;5.426;2022-09-13T04:22:05;18.00;99.90
67890;DHT22;54685;52.082;5.426;2022-09-13T04:24:32;18.00;99.90
67890;DHT22;54685;52.082;5.426;2022-09-13T04:27:00;18.00;99.90
67890;DHT22;54685;52.082;5.426;2022-09-13T04:29:28;17.90;99.90
67890;DHT22;54685;52.082;5.426;2022-09-13T04:31:57;17.90;99.90
67890;DHT22;54685;52.082;5.426;2022-09-13T04:34:24;17.90;99.90
67890;DHT22;54685;52.082;5.426;2022-09-13T04:36:53;17.90;99.90
67890;DHT22;54685;52.082;5.426;2022-09-13T04:39:20;17.90;99.90
67890;DHT22;54685;52.082;5.426;2022-09-13T04:41:48;17.80;99.90
67890;DHT22;54685;52.082;5.426;2022-09-13T04:44:17;17.90;99.90
67890;DHT22;54685;52.082;5.426;2022-09-13T04:46:46;17.90;99.90
67890;DHT22;54685;52.082;5.426;2022-09-13T04:49:16;17.90;99.90
67890;DHT22;54685;52.082;5.426;2022-09-13T04:51:43;18.00;99.90
67890;DHT22;54685;52.082;5.426;2022-09-13T04:54:10;17.90;99.90
67890;DHT22;54685;52.082;5.426;2022-09-13T04:56:42;18.00;99.90
67890;DHT22;54685;52.082;5.426;2022-09-13T04:59:10;18.00;99.90
67890;DHT22;54685;52.082;5.426;2022-09-13T05:01:37;18.00;99.90
67890;DHT22;54685;52.082;5.426;2022-09-13T05:04:05;18.00;99.90
67890;DHT22;54685;52.082;5.426;2022-09-13T05:06:32;18.00;99.90
67890;DHT22;54685;52.082;5.426;2022-09-13T05:08:59;18.00;99.90
67890;DHT22;54685;52.082;5.426;2022-09-13T05:11:27;18.00;99.90
67890;DHT22;54685;52.082;5.426;2022-09-13T05:13:58;18.00;99.90
67890;DHT22;54685;52.082;5.426;2022-09-13T05:16:27;18.00;99.90
67890;DHT22;54685;52.082;5.426;2022-09-13T05:18:55;18.00;99.90
67890;DHT22;54685;52.082;5.426;2022-09-13T05:21:25;18.10;99.90
67890;DHT22;54685;52.082;5.426;2022-09-13T05:23:54;18.10;99.90
67890;DHT22;54685;52.082;5.426;2022-09-13T05:26:23;18.00;99.90
67890;DHT22;54685;52.082;5.426;2022-09-13T05:28:51;18.10;99.90
67890;DHT22;54685;52.082;5.426;2022-09-13T05:31:20;18.10;99.90
67890;DHT22;54685;52.082;5.426;2022-09-13T05:33:52;18.20;99.90
67890;DHT22;54685;52.082;5.426;2022-09-13T05:36:24;18.20;99.90
67890;DHT22;54685;52.082;5.426;2022-09-13T05:38:54;18.10;99.90
67890;DHT22;54685;52.082;5.426;2022-09-13T05:41:41;18.20;99.90
67890;DHT22;54685;52.082;5.426;2022-09-13T05:44:08;18.20;99.90
67890;DHT22;54685;52.082;5.426;2022-09-13T05:46:41;18.20;99.90
67890;DHT22;54685;52.082;5.426;2022-09-13T05:49:10;18.30;99.90
67890;DHT22;54685;52.082;5.426;2022-09-13T05:51:36;18.30;99.90
67890;DHT22;54685;52.082;5.426;2022-09-13T05:54:03;18.30;99.90
67890;DHT22;54685;52.082;5.426;2022-09-13T05:56:30;18.30;99.90
67890;DHT22;54685;52.082;5.426;2022-09-13T05:58:57;18.30;99.90
67890;DHT22;54685;52.082;5.426;2022-09-13T06:01:26;18.30;99.90
67890;DHT22;54685;52.082;5.426;2022-09-13T06:03:56;18.30;99.90
67890;DHT22;54685;52.082;5.426;2022-09-13T06:06:23;18.40;99.90
67890;DHT22;54685;52.082;5.426;2022-09-13T06:08:54;18.40;99.90
67890;DHT22;54685;52.082;5.426;2022-09-13T06:11:22;18.40;99.90
67890;DHT22;54685;52.082;5.426;2022-09-13T06:13:50;18.40;99.90
67890;DHT22;54685;52.082;5.426;2022-09-13T06:16:16;18.40;99.90
67890;DHT22;54685;52.082;5.426;2022-09-13T06:18:43;18.40;99.90
67890;DHT22;54685;52.082;5.426;2022-09-13T06:21:13;18.40;99.90
67890;DHT22;54685;52.082;5.426;2022-09-13T06:23:47;18.50;99.90
67890;DHT22;54685;52.082;5.426;2022-09-13T06:26:15;18.50;99.90
67890;DHT22;54685;52.082;5.426;2022-09-13T06:28:45;18.50;99.90
67890;DHT22;54685;52.082;5.426;2022-09-13T06:31:14;18.60;99.90
67890;DHT22;54685;52.082;5.426;2022-09-13T06:33:42;18.70;99.90
67890;DHT22;54685;52.082;5.426;2022-09-13T06:36:17;18.70;99.90
67890;DHT22;54685;52.082;5.426;2022-09-13T06:38:45;18.70;99.90
67890;DHT22;54685;52.082;5.426;2022-09-13T06:41:14;18.70;99.90
67890;DHT22;54685;52.082;5.426;2022-09-13T06:43:44;18.80;99.90
67890;DHT22;54685;52.082;5.426;2022-09-13T06:46:13;18.80;99.90
67890;DHT22;54685;52.082;5.426;2022-09-13T06:48:43;18.90;99.90
67890;DHT22;54685;52.082;5.426;2022-09-13T06:51:12;18.90;99.90
67890;DHT22;54685;52.082;5.426;2022-09-13T06:53:40;18.90;99.90
67890;DHT22;54685;52.082;5.426;2022-09-13T06:56:12;19.00;99.90
67890;DHT22;54685;52.082;5.426;2022-09-13T06:58:41;19.00;99.90
67890;DHT22;54685;52.082;5.426;2022-09-13T07:01:20;19.00;99.90
67890;DHT22;54685;52.082;5.426;2022-09-13T07:03:49;19.00;99.90
67890;DHT22;54685;52.082;5.426;2022-09-13T07:06:21;19.10;99.90
67890;DHT22;54685;52.082;5.426;2022-09-13T07:08:50;19.10;99.90
67890;DHT22;54685;52.082;5.426;2022-09-13T07:11:19;19.10;99.90
67890;DHT22;54685;52.082;5.426;2022-09-13T07:13:49;19.10;99.90
67890;DHT22;54685;52.082;5.426;2022-09-13T07:16:17;19.10;99.90
67890;DHT22;54685;52.082;5.426;2022-09-13T07:18:45;19.10;99.90
67890;DHT22;54685;52.082;5.426;2022-09-13T07:21:16;19.20;99.90
67890;DHT22;54685;52.082;5.426;2022-09-13T07:23:43;19.20;99.90
67890;DHT22;54685;52.082;5.426;2022-09-13T07:26:10;19.30;99.90
67890;DHT22;54685;52.082;5.426;2022-09-13T07:28:39;19.30;99.90
67890;DHT22;54685;52.082;5.426;2022-09-13T07:31:08;19.30;99.90
67890;DHT22;54685;52.082;5.426;2022-09-13T07:33:36;19.40;99.90
67890;DHT22;54685;52.082;5.426;2022-09-13T07:36:03;19.50;99.90
67890;DHT22;54685;52.082;5.426;2022-09-13T07:38:35;19.60;99.90
67890;DHT22;54685;52.082;5.426;2022-09-13T07:41:03;19.60;99.90
67890;DHT22;54685;52.082;5.426;2022-09-13T07:43:32;19.70;99.90
67890;DHT22;54685;52.082;5.426;2022-09-13T07:46:08;19.80;99.90
67890;DHT22;54685;52.082;5.426;2022-09-13T07:48:37;19.90;99.90
67890;DHT22;54685;52.082;5.426;2022-09-13T07:51:07;19.90;99.90
67890;DHT22;54685;52.082;5.426;2022-09-13T07:53:35;19.90;99.90
67890;DHT22;54685;52.082;5.426;2022-09-13T07:56:07;19.90;99.90
67890;DHT22;54685;52.082;5.426;2022-09-13T07:58:35;20.00;99.90
67890;DHT22;54685;52.082;5.426;2022-09-13T08:01:14;20.00;99.90
67890;DHT22;54685;52.082;5.426;2022-09-13T08:03:42;20.10;99.90
67890;DHT22;54685;52.082;5.426;2022-09-13T08:06:09;20.10;99.90
67890;DHT22;54685;52.082;5.426;2022-09-13T08:08:36;20.20;99.90
67890;DHT22;54685;52.082;5.426;2022-09-13T08:11:05;20.20;99.90
67890;DHT22;54685;52.082;5.426;2022-09-13T08:13:32;20.30;99.90
67890;DHT22;54685;52.082;5.426;2022-09-13T08:16:04;20.30;99.90
67890;DHT22;54685;52.082;5.426;2022-09-13T08:18:32;20.40;99.90
67890;DHT22;54685;52.082;5.426;2022-09-13T08:21:00;20.50;99.90
67890;DHT22;54685;52.082;5.426;2022-09-13T08:23:27;20.60;99.90
67890;DHT22;54685;52.082;5.426;2022-09-13T08:26:00;20.60;99.90
67890;DHT22;54685;52.082;5.426;2022-09-13T08:28:28;20.70;99.90
67890;DHT22;54685;52.082;5.426;2022-09-13T08:30:55;20.80;99.90
67890;DHT22;54685;52.082;5.426;2022-09-13T08:33:22;20.80;99.90
67890;DHT22;54685;52.082;5.426;2022-09-13T08:35:50;20.90;99.90
67890;DHT22;54685;52.082;5.426;2022-09-13T08:38:18;20.90;99.90
67890;DHT22;54685;52.082;5.426;2022-09-13T08:40:59;20.90;99.90
67890;DHT22;54685;52.082;5.426;2022-09-13T08:43:54;21.00;99.90
67890;DHT22;54685;52.082;5.426;2022-09-13T08:46:31;21.00;99.90
67890;DHT22;54685;52.082;5.426;2022-09-13T08:49:02;21.10;99.90
67890;DHT22;54685;52.082;5.426;2022-09-13T08:51:31;21.10;99.90
67890;DHT22;54685;52.082;5.426;2022-09-13T08:54:01;21.20;99.90
67890;DHT22;54685;52.082;5.426;2022-09-13T08:56:37;21.20;99.90
67890;DHT22;54685;52.082;5.426;2022-09-13T08:59:27;21.20;99.90
67890;DHT22;54685;52.082;5.426;2022-09-13T09:02:19;21.20;99.90
67890;DHT22;54685;52.082;5.426;2022-09-13T09:04:53;21.30;99.90
67890;DHT22;54685;52.082;5.426;2022-09-13T09:07:31;21.40;99.90
67890;DHT22;54685;52.082;5.426;2022-09-13T09:10:11;21.50;99.90
67890;DHT22;54685;52.082;5.426;2022-09-13T09:12:46;21.50;99.90
67890;DHT22;54685;52.082;5.426;2022-09-13T09:18:12;21.40;99.90
67890;DHT22;54685;52.082;5.426;2022-09-13T09:20:45;21.50;99.90
67890;DHT22;54685;52.082;5.426;2022-09-13T09:23:21;21.60;99.90
67890;DHT22;54685;52.082;5.426;2022-09-13T09:26:22;21.70;99.90
67890;DHT22;54685;52.082;5.426;2022-09-13T09:28:53;21.70;99.90
67890;DHT22;54685;52.082;5.426;2022-09-13T09:31:42;21.90;99.90
67890;DHT22;54685;52.082;5.426;2022-09-13T09:34:38;22.00;99.90
67890;DHT22;54685;52.082;5.426;2022-09-13T09:37:22;22.00;99.90
67890;DHT22;54685;52.082;5.426;2022-09-13T09:39:57;22.00;99.90
67890;DHT22;54685;52.082;5.426;2022-09-13T09:42:27;22.00;99.90
67890;DHT22;54685;52.082;5.426;2022-09-13T09:44:58;21.90;99.90
67890;DHT22;54685;52.082;5.426;2022-09-13T09:47:28;21.90;99.90
67890;DHT22;54685;52.082;5.426;2022-09-13T09:50:14;21.80;99.90
67890;DHT22;54685;52.082;5.426;2022-09-13T09:55:17;21.80;99.90
67890;DHT22;54685;52.082;5.426;2022-09-13T10:00:25;21.80;99.90
67890;DHT22;54685;52.082;5.426;2022-09-13T10:02:59;21.80;99.90
67890;DHT22;54685;52.082;5.426;2022-09-13T10:05:28;21.70;99.90
67890;DHT22;54685;52.082;5.426;2022-09-13T10:08:03;21.70;99.90
67890;DHT22;54685;52.082;5.426;2022-09-13T10:10:39;21.70;99.90
67890;DHT22;54685;52.082;5.426;2022-09-13T10:13:17;22.00;99.90
67890;DHT22;54685;52.082;5.426;2022-09-13T10:15:58;22.10;99.90
67890;DHT22;54685;52.082;5.426;2022-09-13T10:18:30;22.30;99.90
67890;DHT22;54685;52.082;5.426;2022-09-13T10:21:22;22.60;99.90
67890;DHT22;54685;52.082;5.426;2022-09-13T10:23:50;22.80;99.90
67890;DHT22;54685;52.082;5.426;2022-09-13T10:28:59;23.10;99.90
67890;DHT22;54685;52.082;5.426;2022-09-13T10:31:33;23.10;99.90
67890;DHT22;54685;52.082;5.426;2022-09-13T10:34:16;23.10;99.90
67890;DHT22;54685;52.082;5.426;2022-09-13T10:36:58;23.10;99.90
67890;DHT22;54685;52.082;5.426;2022-09-13T10:39:28;23.00;99.90
67890;DHT22;54685;52.082;5.426;2022-09-13T10:42:00;22.90;99.90
67890;DHT22;54685;52.082;5.426;2022-09-13T10:47:03;22.70;99.90
67890;DHT22;54685;52.082;5.426;2022-09-13T10:49:50;22.60;99.90
67890;DHT22;54685;52.082;5.426;2022-09-13T10:52:31;22.90;99.90
67890;DHT22;54685;52.082;5.426;2022-09-13T10:55:32;23.30;99.90
67890;DHT22;54685;52.082;5.426;2022-09-13T11:00:48;24.20;99.90
67890;DHT22;54685;52.082;5.426;2022-09-13T11:09:00;25.50;99.90
67890;DHT22;54685;52.082;5.426;2022-09-13T11:17:54;25.10;99.50
67890;DHT22;54685;52.082;5.426;2022-09-13T11:23:27;24.40;99.90
67890;DHT22;54685;52.082;5.426;2022-09-13T11:26:26;24.40;99.90
67890;DHT22;54685;52.082;5.426;2022-09-13T11:31:37;24.20;99.90
67890;DHT22;54685;52.082;5.426;2022-09-13T11:34:28;24.20;99.90
67890;DHT22;54685;52.082;5.426;2022-09-13T11:37:21;24.20;99.90
67890;DHT22;54685;52.082;5.426;2022-09-13T11:45:28;24.60;99.90
67890;DHT22;54685;52.082;5.426;2022-09-13T11:48:00;24.90;98.90
67890;DHT22;54685;52.082;5.426;2022-09-13T11:50:32;25.10;93.50
67890;DHT22;54685;52.082;5.426;2022-09-13T11:53:23;25.30;95.10
67890;DHT22;54685;52.082;5.426;2022-09-13T11:56:02;25.40;94.10
67890;DHT22;54685;52.082;5.426;2022-09-13T12:01:22;25.40;94.30
67890;DHT22;54685;52.082;5.426;2022-09-13T12:03:59;25.20;92.70
67890;DHT22;54685;52.082;5.426;2022-09-13T12:09:06;24.70;95.30
67890;DHT22;54685;52.082;5.426;2022-09-13T12:11:45;24.50;94.40
67890;DHT22;54685;52.082;5.426;2022-09-13T12:14:20;24.30;96.40
67890;DHT22;54685;52.082;5.426;2022-09-13T12:17:02;24.20;96.50
67890;DHT22;54685;52.082;5.426;2022-09-13T12:19:42;24.20;97.10
67890;DHT22;54685;52.082;5.426;2022-09-13T12:22:11;24.20;95.00
67890;DHT22;54685;52.082;5.426;2022-09-13T12:24:54;24.20;94.00
67890;DHT22;54685;52.082;5.426;2022-09-13T12:27:38;24.20;95.10
67890;DHT22;54685;52.082;5.426;2022-09-13T12:30:18;24.10;93.60
67890;DHT22;54685;52.082;5.426;2022-09-13T12:32:46;23.90;93.90
67890;DHT22;54685;52.082;5.426;2022-09-13T12:38:32;23.60;95.00
67890;DHT22;54685;52.082;5.426;2022-09-13T12:44:04;23.50;95.20
67890;DHT22;54685;52.082;5.426;2022-09-13T12:46:44;23.40;95.20
67890;DHT22;54685;52.082;5.426;2022-09-13T12:49:49;23.40;95.30
67890;DHT22;54685;52.082;5.426;2022-09-13T13:01:22;23.40;92.90
67890;DHT22;54685;52.082;5.426;2022-09-13T13:06:53;23.50;93.10
67890;DHT22;54685;52.082;5.426;2022-09-13T13:12:11;23.80;92.60
67890;DHT22;54685;52.082;5.426;2022-09-13T13:14:51;23.90;92.10
67890;DHT22;54685;52.082;5.426;2022-09-13T13:17:45;24.10;92.80
67890;DHT22;54685;52.082;5.426;2022-09-13T13:20:44;24.10;92.70
67890;DHT22;54685;52.082;5.426;2022-09-13T13:23:29;24.10;90.20
67890;DHT22;54685;52.082;5.426;2022-09-13T13:34:01;24.10;93.40
67890;DHT22;54685;52.082;5.426;2022-09-13T13:36:29;24.10;92.40
67890;DHT22;54685;52.082;5.426;2022-09-13T13:39:00;24.10;91.40
67890;DHT22;54685;52.082;5.426;2022-09-13T13:44:56;24.10;89.40
67890;DHT22;54685;52.082;5.426;2022-09-13T13:46:49;24.10;90.70
67890;DHT22;54685;52.082;5.426;2022-09-13T13:57:36;24.00;90.40
67890;DHT22;54685;52.082;5.426;2022-09-13T14:00:14;24.00;90.20
67890;DHT22;54685;52.082;5.426;2022-09-13T14:02:56;24.10;92.00
67890;DHT22;54685;52.082;5.426;2022-09-13T14:19:43;24.10;90.10
67890;DHT22;54685;52.082;5.426;2022-09-13T14:22:23;24.10;88.50
67890;DHT22;54685;52.082;5.426;2022-09-13T14:24:58;24.10;87.60
67890;DHT22;54685;52.082;5.426;2022-09-13T14:27:39;24.20;84.60
67890;DHT22;54685;52.082;5.426;2022-09-13T14:30:36;24.10;86.30
67890;DHT22;54685;52.082;5.426;2022-09-13T14:33:04;24.00;87.80
67890;DHT22;54685;52.082;5.426;2022-09-13T14:35:40;23.90;87.20
67890;DHT22;54685;52.082;5.426;2022-09-13T14:38:19;23.90;87.10
67890;DHT22;54685;52.082;5.426;2022-09-13T14:40:48;23.90;85.10
67890;DHT22;54685;52.082;5.426;2022-09-13T14:43:20;23.80;86.30
67890;DHT22;54685;52.082;5.426;2022-09-13T14:45:51;23.80;86.50
67890;DHT22;54685;52.082;5.426;2022-09-13T14:48:25;23.80;83.40
67890;DHT22;54685;52.082;5.426;2022-09-13T14:51:23;23.60;80.80
67890;DHT22;54685;52.082;5.426;2022-09-13T14:53:55;23.60;83.20
67890;DHT22;54685;52.082;5.426;2022-09-13T14:56:35;23.50;80.60
67890;DHT22;54685;52.082;5.426;2022-09-13T14:59:06;23.40;81.50
67890;DHT22;54685;52.082;5.426;2022-09-13T15:01:37;23.40;82.50
67890;DHT22;54685;52.082;5.426;2022-09-13T15:04:04;23.40;82.00
67890;DHT22;54685;52.082;5.426;2022-09-13T15:06:35;23.40;81.20
67890;DHT22;54685;52.082;5.426;2022-09-13T15:14:35;23.10;80.90
67890;DHT22;54685;52.082;5.426;2022-09-13T15:17:12;23.10;79.90
67890;DHT22;54685;52.082;5.426;2022-09-13T15:24:49;22.90;83.10
67890;DHT22;54685;52.082;5.426;2022-09-13T15:27:23;22.80;83.70
67890;DHT22;54685;52.082;5.426;2022-09-13T15:29:53;22.80;82.10
67890;DHT22;54685;52.082;5.426;2022-09-13T15:34:57;22.60;78.60
67890;DHT22;54685;52.082;5.426;2022-09-13T15:37:34;22.50;80.90
67890;DHT22;54685;52.082;5.426;2022-09-13T15:40:18;22.40;81.80
67890;DHT22;54685;52.082;5.426;2022-09-13T15:42:48;22.40;82.20
67890;DHT22;54685;52.082;5.426;2022-09-13T15:45:19;22.40;82.20
67890;DHT22;54685;52.082;5.426;2022-09-13T15:47:47;22.40;79.70
67890;DHT22;54685;52.082;5.426;2022-09-13T15:50:28;22.30;83.60
67890;DHT22;54685;52.082;5.426;2022-09-13T15:52:59;22.30;84.40
67890;DHT22;54685;52.082;5.426;2022-09-13T15:55:27;22.30;83.10
67890;DHT22;54685;52.082;5.426;2022-09-13T15:57:54;22.30;84.90
67890;DHT22;54685;52.082;5.426;2022-09-13T16:00:23;22.20;86.00
67890;DHT22;54685;52.082;5.426;2022-09-13T16:02:51;22.10;88.50
67890;DHT22;54685;52.082;5.426;2022-09-13T16:05:18;22.10;88.50
67890;DHT22;54685;52.082;5.426;2022-09-13T16:07:44;22.00;87.80
67890;DHT22;54685;52.082;5.426;2022-09-13T16:10:20;22.00;89.70
67890;DHT22;54685;52.082;5.426;2022-09-13T16:12:47;22.00;88.90
67890;DHT22;54685;52.082;5.426;2022-09-13T16:15:14;22.00;89.00
67890;DHT22;54685;52.082;5.426;2022-09-13T16:17:42;22.00;90.70
67890;DHT22;54685;52.082;5.426;2022-09-13T16:20:13;21.90;91.60
67890;DHT22;54685;52.082;5.426;2022-09-13T16:22:41;21.90;93.10
67890;DHT22;54685;52.082;5.426;2022-09-13T16:25:10;21.90;92.30
67890;DHT22;54685;52.082;5.426;2022-09-13T16:27:39;21.80;92.50
67890;DHT22;54685;52.082;5.426;2022-09-13T16:30:06;21.80;93.20
67890;DHT22;54685;52.082;5.426;2022-09-13T16:32:33;21.70;92.90
67890;DHT22;54685;52.082;5.426;2022-09-13T16:35:00;21.70;92.90
67890;DHT22;54685;52.082;5.426;2022-09-13T16:37:26;21.60;94.30
67890;DHT22;54685;52.082;5.426;2022-09-13T16:39:55;21.60;94.30
67890;DHT22;54685;52.082;5.426;2022-09-13T16:42:23;21.60;94.10
67890;DHT22;54685;52.082;5.426;2022-09-13T16:44:50;21.50;94.10
67890;DHT22;54685;52.082;5.426;2022-09-13T16:47:17;21.50;94.20
67890;DHT22;54685;52.082;5.426;2022-09-13T16:49:45;21.40;94.00
67890;DHT22;54685;52.082;5.426;2022-09-13T16:52:14;21.40;94.50
67890;DHT22;54685;52.082;5.426;2022-09-13T16:54:41;21.30;95.00
67890;DHT22;54685;52.082;5.426;2022-09-13T16:57:08;21.20;95.20
67890;DHT22;54685;52.082;5.426;2022-09-13T16:59:35;21.10;95.30
67890;DHT22;54685;52.082;5.426;2022-09-13T17:02:02;21.00;95.70
67890;DHT22;54685;52.082;5.426;2022-09-13T17:04:29;20.90;96.60
67890;DHT22;54685;52.082;5.426;2022-09-13T17:06:56;20.90;97.00
67890;DHT22;54685;52.082;5.426;2022-09-13T17:09:23;20.80;96.70
67890;DHT22;54685;52.082;5.426;2022-09-13T17:11:53;20.70;96.00
67890;DHT22;54685;52.082;5.426;2022-09-13T17:14:20;20.60;96.30
67890;DHT22;54685;52.082;5.426;2022-09-13T17:16:53;20.60;98.00
67890;DHT22;54685;52.082;5.426;2022-09-13T17:19:24;20.50;98.10
67890;DHT22;54685;52.082;5.426;2022-09-13T17:21:52;20.40;98.50
67890;DHT22;54685;52.082;5.426;2022-09-13T17:24:23;20.30;98.70
67890;DHT22;54685;52.082;5.426;2022-09-13T17:26:51;20.20;98.60
67890;DHT22;54685;52.082;5.426;2022-09-13T17:29:17;20.10;98.70
67890;DHT22;54685;52.082;5.426;2022-09-13T17:31:44;20.10;98.90
67890;DHT22;54685;52.082;5.426;2022-09-13T17:34:11;20.00;98.50
67890;DHT22;54685;52.082;5.426;2022-09-13T17:36:39;19.90;98.50
67890;DHT22;54685;52.082;5.426;2022-09-13T17:39:06;19.90;98.20
67890;DHT22;54685;52.082;5.426;2022-09-13T17:41:33;19.80;98.30
67890;DHT22;54685;52.082;5.426;2022-09-13T17:44:02;19.80;98.10
67890;DHT22;54685;52.082;5.426;2022-09-13T17:46:29;19.70;98.70
67890;DHT22;54685;52.082;5.426;2022-09-13T17:48:57;19.70;98.70
67890;DHT22;54685;52.082;5.426;2022-09-13T17:51:27;19.60;98.90
67890;DHT22;54685;52.082;5.426;2022-09-13T17:54:02;19.60;99.40
67890;DHT22;54685;52.082;5.426;2022-09-13T17:56:34;19.60;99.70
67890;DHT22;54685;52.082;5.426;2022-09-13T17:59:16;19.50;99.90
67890;DHT22;54685;52.082;5.426;2022-09-13T18:01:46;19.50;99.90
67890;DHT22;54685;52.082;5.426;2022-09-13T18:04:14;19.40;99.90
67890;DHT22;54685;52.082;5.426;2022-09-13T18:06:42;19.40;99.90
67890;DHT22;54685;52.082;5.426;2022-09-13T18:09:10;19.30;99.90
67890;DHT22;54685;52.082;5.426;2022-09-13T18:11:40;19.20;99.90
67890;DHT22;54685;52.082;5.426;2022-09-13T18:14:12;19.20;99.90
67890;DHT22;54685;52.082;5.426;2022-09-13T18:16:40;19.10;99.90
67890;DHT22;54685;52.082;5.426;2022-09-13T18:19:07;19.10;99.90
67890;DHT22;54685;52.082;5.426;2022-09-13T18:21:34;19.00;99.90
67890;DHT22;54685;52.082;5.426;2022-09-13T18:24:01;19.00;99.90
67890;DHT22;54685;52.082;5.426;2022-09-13T18:26:29;19.00;99.90
67890;DHT22;54685;52.082;5.426;2022-09-13T18:29:02;18.90;99.90
67890;DHT22;54685;52.082;5.426;2022-09-13T18:31:30;18.90;99.90
67890;DHT22;54685;52.082;5.426;2022-09-13T18:34:00;18.90;99.90
67890;DHT22;54685;52.082;5.426;2022-09-13T18:36:27;18.80;99.90
67890;DHT22;54685;52.082;5.426;2022-09-13T18:38:55;18.80;99.90
67890;DHT22;54685;52.082;5.426;2022-09-13T18:41:24;18.70;99.90
67890;DHT22;54685;52.082;5.426;2022-09-13T18:43:53;18.70;99.90
67890;DHT22;54685;52.082;5.426;2022-09-13T18:46:24;18.60;99.90
67890;DHT22;54685;52.082;5.426;2022-09-13T18:48:53;18.60;99.90
67890;DHT22;54685;52.082;5.426;2022-09-13T18:51:33;18.60;99.90